createdAt,value
2018-12-19T00:00:23.801Z,8.73
2018-12-19T00:02:50.447Z,10.00
2018-12-19T00:05:16.665Z,10.13
2018-12-19T00:07:43.577Z,10.43
2018-12-19T00:10:11.696Z,9.00
2018-12-19T00:12:37.856Z,12.63
2018-12-19T00:15:04.171Z,10.33
2018-12-19T00:17:30.594Z,9.97
2018-12-19T00:19:57.058Z,9.10
2018-12-19T00:22:23.280Z,9.73
2018-12-19T00:24:50.346Z,8.40
2018-12-19T00:27:16.711Z,9.73
2018-12-19T00:29:43.060Z,10.63
2018-12-19T00:32:11.038Z,9.27
2018-12-19T00:34:37.313Z,11.07
2018-12-19T00:37:03.572Z,8.97
2018-12-19T00:39:33.146Z,7.93
2018-12-19T00:42:39.299Z,9.27
2018-12-19T00:45:06.596Z,9.43
2018-12-19T00:47:32.792Z,9.60
2018-12-19T00:49:59.121Z,8.40
2018-12-19T00:52:25.690Z,9.70
2018-12-19T00:54:54.041Z,9.07
2018-12-19T00:57:20.791Z,9.37
2018-12-19T00:59:47.552Z,7.80
2018-12-19T01:02:20.554Z,9.43
2018-12-19T01:05:27.194Z,9.70
2018-12-19T01:08:33.415Z,8.87
2018-12-19T01:11:39.292Z,7.70
2018-12-19T01:14:45.284Z,7.13
2018-12-19T01:17:51.055Z,9.23
2018-12-19T01:20:50.678Z,7.93
2018-12-19T01:23:56.803Z,7.33
2018-12-19T01:27:02.686Z,6.50
2018-12-19T01:30:08.632Z,7.27
2018-12-19T01:33:14.621Z,6.63
2018-12-19T01:35:59.710Z,7.00
2018-12-19T01:38:25.922Z,5.73
2018-12-19T01:40:52.122Z,7.20
2018-12-19T01:43:18.258Z,6.93
2018-12-19T01:45:44.482Z,6.30
2018-12-19T01:48:10.803Z,6.60
2018-12-19T01:50:37.678Z,6.57
2018-12-19T01:53:04.057Z,7.40
2018-12-19T01:55:30.738Z,6.83
2018-12-19T01:57:57.286Z,6.67
2018-12-19T02:00:25.368Z,6.30
2018-12-19T02:02:51.524Z,6.30
2018-12-19T02:05:17.888Z,7.67
2018-12-19T02:07:44.202Z,6.90
2018-12-19T02:10:10.579Z,6.87
2018-12-19T02:12:37.199Z,5.33
2018-12-19T02:15:03.866Z,6.33
2018-12-19T02:17:30.064Z,6.00
2018-12-19T02:19:56.407Z,5.53
2018-12-19T02:22:22.572Z,5.80
2018-12-19T02:24:48.836Z,6.67
2018-12-19T02:27:15.212Z,6.23
2018-12-19T02:29:41.395Z,7.63
2018-12-19T02:32:08.083Z,5.70
2018-12-19T02:34:34.444Z,5.47
2018-12-19T02:37:01.928Z,8.10
2018-12-19T02:39:28.209Z,5.30
2018-12-19T02:41:54.477Z,5.50
2018-12-19T02:44:20.731Z,6.83
2018-12-19T02:46:46.902Z,5.03
2018-12-19T02:49:13.383Z,5.93
2018-12-19T02:51:39.474Z,6.53
2018-12-19T02:54:05.650Z,5.00
2018-12-19T02:56:32.818Z,4.63
2018-12-19T02:58:58.915Z,4.53
2018-12-19T03:01:25.103Z,4.90
2018-12-19T03:03:51.612Z,5.07
2018-12-19T03:06:17.893Z,5.33
2018-12-19T03:08:44.099Z,5.43
2018-12-19T03:11:11.634Z,4.63
2018-12-19T03:13:37.912Z,5.47
2018-12-19T03:16:04.175Z,4.17
2018-12-19T03:18:30.862Z,4.30
2018-12-19T03:20:56.942Z,4.67
2018-12-19T03:23:23.203Z,5.80
2018-12-19T03:25:49.672Z,4.23
2018-12-19T03:28:15.819Z,5.73
2018-12-19T03:30:42.302Z,4.67
2018-12-19T03:33:08.901Z,6.43
2018-12-19T03:35:35.172Z,5.03
2018-12-19T03:38:01.435Z,4.37
2018-12-19T03:40:28.240Z,5.70
2018-12-19T03:42:54.918Z,5.00
2018-12-19T03:45:21.279Z,5.23
2018-12-19T03:47:47.915Z,4.60
2018-12-19T03:50:14.579Z,4.53
2018-12-19T03:52:40.654Z,4.33
2018-12-19T03:55:07.227Z,6.53
2018-12-19T03:57:33.697Z,5.10
2018-12-19T03:59:59.868Z,5.20
2018-12-19T04:02:26.290Z,4.57
2018-12-19T04:04:52.496Z,4.50
2018-12-19T04:07:18.847Z,4.60
2018-12-19T04:09:45.378Z,4.90
2018-12-19T04:12:11.600Z,5.03
2018-12-19T04:14:37.660Z,4.87
2018-12-19T04:17:04.258Z,4.63
2018-12-19T04:19:30.598Z,4.37
2018-12-19T04:21:56.656Z,4.90
2018-12-19T04:24:23.267Z,4.83
2018-12-19T04:26:49.486Z,5.13
2018-12-19T04:29:15.670Z,4.70
2018-12-19T04:31:42.852Z,4.93
2018-12-19T04:34:09.142Z,5.50
2018-12-19T04:36:35.406Z,4.50
2018-12-19T04:39:02.144Z,4.47
2018-12-19T04:41:28.310Z,5.50
2018-12-19T04:43:54.463Z,5.60
2018-12-19T04:46:20.841Z,5.30
2018-12-19T04:48:47.102Z,4.40
2018-12-19T04:51:13.498Z,5.20
2018-12-19T04:53:39.810Z,5.50
2018-12-19T04:56:06.071Z,5.03
2018-12-19T04:58:32.452Z,6.23
2018-12-19T05:00:59.022Z,4.77
2018-12-19T05:03:25.312Z,5.13
2018-12-19T05:05:51.498Z,4.83
2018-12-19T05:08:18.389Z,5.33
2018-12-19T05:10:44.548Z,4.87
2018-12-19T05:13:10.718Z,6.77
2018-12-19T05:15:37.295Z,5.87
2018-12-19T05:18:03.598Z,5.50
2018-12-19T05:20:29.696Z,6.57
2018-12-19T05:22:56.096Z,6.40
2018-12-19T05:25:22.463Z,6.97
2018-12-19T05:27:48.631Z,6.13
2018-12-19T05:30:15.034Z,6.73
2018-12-19T05:32:41.457Z,7.37
2018-12-19T05:35:07.749Z,5.93
2018-12-19T05:37:34.187Z,6.73
2018-12-19T05:40:00.395Z,6.60
2018-12-19T05:42:26.552Z,5.83
2018-12-19T05:44:52.998Z,5.87
2018-12-19T05:47:19.557Z,5.50
2018-12-19T05:49:46.231Z,6.50
2018-12-19T05:52:12.751Z,4.37
2018-12-19T05:54:38.912Z,5.07
2018-12-19T05:57:05.087Z,5.27
2018-12-19T05:59:31.429Z,6.93
2018-12-19T06:01:57.911Z,6.27
2018-12-19T06:04:24.025Z,6.97
2018-12-19T06:06:50.402Z,5.13
2018-12-19T06:09:16.686Z,5.93
2018-12-19T06:11:42.855Z,6.97
2018-12-19T06:14:09.176Z,5.70
2018-12-19T06:16:35.546Z,6.73
2018-12-19T06:19:01.718Z,5.97
2018-12-19T06:21:28.247Z,5.83
2018-12-19T06:23:54.999Z,7.27
2018-12-19T06:26:21.210Z,6.53
2018-12-19T06:28:47.927Z,5.77
2018-12-19T06:31:14.125Z,6.40
2018-12-19T06:33:40.551Z,6.30
2018-12-19T06:36:07.247Z,6.63
2018-12-19T06:38:33.350Z,5.47
2018-12-19T06:40:59.612Z,7.97
2018-12-19T06:43:26.059Z,5.17
2018-12-19T06:45:52.436Z,6.70
2018-12-19T06:48:18.706Z,6.40
2018-12-19T06:50:45.028Z,5.73
2018-12-19T06:53:11.202Z,8.47
2018-12-19T06:55:37.379Z,6.40
2018-12-19T06:58:03.763Z,6.27
2018-12-19T07:00:29.831Z,5.00
2018-12-19T07:02:55.906Z,4.90
2018-12-19T07:05:22.563Z,6.77
2018-12-19T07:07:48.826Z,5.37
2018-12-19T07:10:15.021Z,8.03
2018-12-19T07:12:41.499Z,6.07
2018-12-19T07:15:08.034Z,6.73
2018-12-19T07:17:34.251Z,5.33
2018-12-19T07:20:00.694Z,6.17
2018-12-19T07:22:26.962Z,6.13
2018-12-19T07:24:53.587Z,7.50
2018-12-19T07:27:20.005Z,6.70
2018-12-19T07:29:46.075Z,5.17
2018-12-19T07:32:12.470Z,7.80
2018-12-19T07:34:44.066Z,7.30
2018-12-19T07:37:07.150Z,8.03
2018-12-19T07:39:33.244Z,5.90
2018-12-19T07:41:59.538Z,6.40
2018-12-19T07:44:25.731Z,6.70
2018-12-19T07:46:51.825Z,6.83
2018-12-19T07:49:18.231Z,6.73
2018-12-19T07:51:44.425Z,6.33
2018-12-19T07:54:10.761Z,6.60
2018-12-19T07:56:37.520Z,6.33
2018-12-19T07:59:03.815Z,6.73
2018-12-19T08:01:29.883Z,6.37
2018-12-19T08:03:56.969Z,7.73
2018-12-19T08:06:23.162Z,6.60
2018-12-19T08:08:49.238Z,7.17
2018-12-19T08:11:15.715Z,6.80
2018-12-19T08:13:41.877Z,6.77
2018-12-19T08:16:08.055Z,7.13
2018-12-19T08:18:34.830Z,8.63
2018-12-19T08:21:01.116Z,7.43
2018-12-19T08:23:27.473Z,7.07
2018-12-19T08:25:53.738Z,7.87
2018-12-19T08:28:19.900Z,5.33
2018-12-19T08:30:46.178Z,6.80
2018-12-19T08:33:12.611Z,7.93
2018-12-19T08:35:38.977Z,6.43
2018-12-19T08:38:05.171Z,7.30
2018-12-19T08:40:31.660Z,7.57
2018-12-19T08:42:57.718Z,7.97
2018-12-19T08:45:24.562Z,8.03
2018-12-19T08:47:51.193Z,6.43
2018-12-19T08:50:17.502Z,8.53
2018-12-19T08:52:43.701Z,7.33
2018-12-19T08:55:10.179Z,7.87
2018-12-19T08:57:36.251Z,8.30
2018-12-19T09:00:06.540Z,6.33
2018-12-19T09:02:33.503Z,7.50
2018-12-19T09:04:59.656Z,7.97
2018-12-19T09:07:25.833Z,8.07
2018-12-19T09:09:52.140Z,7.83
2018-12-19T09:12:18.410Z,7.63
2018-12-19T09:14:44.746Z,7.00
2018-12-19T09:17:12.950Z,7.27
2018-12-19T09:19:39.585Z,7.20
2018-12-19T09:22:06.837Z,6.97
2018-12-19T09:24:33.395Z,7.60
2018-12-19T09:26:59.601Z,6.60
2018-12-19T09:29:25.766Z,6.40
2018-12-19T09:31:52.306Z,6.87
2018-12-19T09:34:18.498Z,5.80
2018-12-19T09:36:44.671Z,6.43
2018-12-19T09:39:10.925Z,8.40
2018-12-19T09:41:37.292Z,7.13
2018-12-19T09:44:06.338Z,5.90
2018-12-19T09:46:32.701Z,8.77
2018-12-19T09:48:59.389Z,7.93
2018-12-19T09:51:25.693Z,7.30
2018-12-19T09:53:52.307Z,7.97
2018-12-19T09:56:18.529Z,8.17
2018-12-19T09:58:44.733Z,9.03
2018-12-19T10:01:11.107Z,7.63
2018-12-19T10:03:37.217Z,6.20
2018-12-19T10:06:03.595Z,6.53
2018-12-19T10:08:30.031Z,6.27
2018-12-19T10:10:56.321Z,7.93
2018-12-19T10:13:22.486Z,7.23
2018-12-19T10:15:48.899Z,8.13
2018-12-19T10:18:15.002Z,7.93
2018-12-19T10:20:41.242Z,6.40
2018-12-19T10:23:07.849Z,9.40
2018-12-19T10:25:33.999Z,7.93
2018-12-19T10:28:00.322Z,9.27
2018-12-19T10:30:26.856Z,7.37
2018-12-19T10:32:55.216Z,6.77
2018-12-19T10:35:22.764Z,8.70
2018-12-19T10:37:49.243Z,6.43
2018-12-19T10:40:15.463Z,8.73
2018-12-19T10:42:41.840Z,8.07
2018-12-19T10:45:08.470Z,6.97
2018-12-19T10:47:34.794Z,7.67
2018-12-19T10:50:01.121Z,8.63
2018-12-19T10:52:28.658Z,9.03
2018-12-19T10:54:54.875Z,9.60
2018-12-19T10:57:21.114Z,8.60
2018-12-19T10:59:47.507Z,8.60
2018-12-19T11:02:13.780Z,10.33
2018-12-19T11:04:39.922Z,9.33
2018-12-19T11:07:06.854Z,8.93
2018-12-19T11:09:33.106Z,8.00
2018-12-19T11:11:59.438Z,8.87
2018-12-19T11:14:27.076Z,8.17
2018-12-19T11:16:53.371Z,9.87
2018-12-19T11:19:19.545Z,9.23
2018-12-19T11:21:46.081Z,8.03
2018-12-19T11:24:12.582Z,10.63
2018-12-19T11:26:39.261Z,7.47
2018-12-19T11:29:05.757Z,9.20
2018-12-19T11:31:32.131Z,9.40
2018-12-19T11:33:58.743Z,10.07
2018-12-19T11:36:25.028Z,9.93
2018-12-19T11:38:51.314Z,9.57
2018-12-19T11:41:17.463Z,10.37
2018-12-19T11:43:43.694Z,11.10
2018-12-19T11:46:09.884Z,8.23
2018-12-19T11:48:36.220Z,10.00
2018-12-19T11:51:02.836Z,8.73
2018-12-19T11:53:29.560Z,10.17
2018-12-19T11:55:55.855Z,9.17
2018-12-19T11:58:22.256Z,8.70
2018-12-19T12:00:48.635Z,11.60
2018-12-19T12:03:14.922Z,9.97
2018-12-19T12:05:41.350Z,9.87
2018-12-19T12:08:07.898Z,9.87
2018-12-19T12:10:34.176Z,9.47
2018-12-19T12:13:00.697Z,10.03
2018-12-19T12:15:26.962Z,9.47
2018-12-19T12:17:53.239Z,8.77
2018-12-19T12:20:19.686Z,10.33
2018-12-19T12:22:45.990Z,10.90
2018-12-19T12:25:15.206Z,10.37
2018-12-19T12:27:41.686Z,8.13
2018-12-19T12:30:09.652Z,10.80
2018-12-19T12:32:35.982Z,8.57
2018-12-19T12:35:06.528Z,7.83
2018-12-19T12:37:32.929Z,10.47
2018-12-19T12:39:59.286Z,9.07
2018-12-19T12:42:25.740Z,10.00
2018-12-19T12:44:52.201Z,7.73
2018-12-19T12:47:18.780Z,9.87
2018-12-19T12:49:45.362Z,9.43
2018-12-19T12:52:11.552Z,10.07
2018-12-19T12:54:37.761Z,8.10
2018-12-19T12:57:04.276Z,9.33
2018-12-19T12:59:30.432Z,8.40
2018-12-19T13:01:56.607Z,9.23
2018-12-19T13:04:22.979Z,9.70
2018-12-19T13:06:49.156Z,9.37
2018-12-19T13:09:15.419Z,12.40
2018-12-19T13:11:42.085Z,9.73
2018-12-19T13:14:08.383Z,11.87
2018-12-19T13:16:34.663Z,10.57
2018-12-19T13:19:02.089Z,10.60
2018-12-19T13:21:28.725Z,11.33
2018-12-19T13:23:55.138Z,9.50
2018-12-19T13:26:21.556Z,11.13
2018-12-19T13:28:47.736Z,10.40
2018-12-19T13:31:14.203Z,9.20
2018-12-19T13:33:41.541Z,10.43
2018-12-19T13:36:07.991Z,8.90
2018-12-19T13:38:34.126Z,9.20
2018-12-19T13:41:00.450Z,8.43
2018-12-19T13:43:26.636Z,11.53
2018-12-19T13:45:52.883Z,10.73
2018-12-19T13:48:19.326Z,10.87
2018-12-19T13:50:45.715Z,9.57
2018-12-19T13:53:11.883Z,9.53
2018-12-19T13:55:38.418Z,8.53
2018-12-19T13:58:07.198Z,11.27
2018-12-19T14:00:33.004Z,10.23
2018-12-19T14:02:59.676Z,9.30
2018-12-19T14:05:25.866Z,10.13
2018-12-19T14:07:52.147Z,9.87
2018-12-19T14:10:18.543Z,10.27
2018-12-19T14:12:44.722Z,11.60
2018-12-19T14:15:10.999Z,11.63
2018-12-19T14:17:37.893Z,11.43
2018-12-19T14:20:06.305Z,12.00
2018-12-19T14:22:32.611Z,10.43
2018-12-19T14:24:59.171Z,10.23
2018-12-19T14:27:25.524Z,12.40
2018-12-19T14:29:51.739Z,9.37
2018-12-19T14:32:18.578Z,10.00
2018-12-19T14:34:44.745Z,10.53
2018-12-19T14:37:11.139Z,10.00
2018-12-19T14:39:37.594Z,9.37
2018-12-19T14:42:03.895Z,9.57
2018-12-19T14:44:31.423Z,11.07
2018-12-19T14:46:57.708Z,10.13
2018-12-19T14:49:23.756Z,9.97
2018-12-19T14:51:50.026Z,11.23
2018-12-19T14:54:16.336Z,12.30
2018-12-19T14:56:42.493Z,11.57
2018-12-19T14:59:08.775Z,10.13
2018-12-19T15:01:35.358Z,10.27
2018-12-19T15:04:01.554Z,9.53
2018-12-19T15:06:27.838Z,11.50
2018-12-19T15:08:55.083Z,12.40
2018-12-19T15:11:21.490Z,10.17
2018-12-19T15:13:47.719Z,11.20
2018-12-19T15:16:16.123Z,11.03
2018-12-19T15:18:42.416Z,9.73
2018-12-19T15:21:08.680Z,10.87
2018-12-19T15:23:35.030Z,10.40
2018-12-19T15:26:01.321Z,10.53
2018-12-19T15:28:27.572Z,11.13
2018-12-19T15:30:54.551Z,11.47
2018-12-19T15:33:20.745Z,10.30
2018-12-19T15:35:47.329Z,11.43
2018-12-19T15:38:14.104Z,11.93
2018-12-19T15:40:40.283Z,11.23
2018-12-19T15:43:06.494Z,12.57
2018-12-19T15:45:32.996Z,11.77
2018-12-19T15:47:59.095Z,10.40
2018-12-19T15:50:25.386Z,11.50
2018-12-19T15:52:51.800Z,10.50
2018-12-19T15:55:17.954Z,11.63
2018-12-19T15:57:44.238Z,11.43
2018-12-19T16:00:12.590Z,13.63
2018-12-19T16:02:38.691Z,12.67
2018-12-19T16:05:04.971Z,11.57
2018-12-19T16:07:31.459Z,10.57
2018-12-19T16:09:57.529Z,10.90
2018-12-19T16:12:23.829Z,11.07
2018-12-19T16:14:50.277Z,10.53
2018-12-19T16:17:16.542Z,10.50
2018-12-19T16:19:42.704Z,13.40
2018-12-19T16:22:09.067Z,11.80
2018-12-19T16:24:35.244Z,12.93
2018-12-19T16:27:01.630Z,12.60
2018-12-19T16:29:28.761Z,11.03
2018-12-19T16:31:54.967Z,9.90
2018-12-19T16:34:21.155Z,11.87
2018-12-19T16:36:47.948Z,12.93
2018-12-19T16:39:14.770Z,11.93
2018-12-19T16:41:41.059Z,11.40
2018-12-19T16:44:07.505Z,13.67
2018-12-19T16:46:33.775Z,13.17
2018-12-19T16:49:00.030Z,12.77
2018-12-19T16:51:26.759Z,11.33
2018-12-19T16:53:53.039Z,11.43
2018-12-19T16:56:19.310Z,13.13
2018-12-19T16:58:45.685Z,12.90
2018-12-19T17:01:11.770Z,12.87
2018-12-19T17:03:38.036Z,12.70
2018-12-19T17:06:04.670Z,15.80
2018-12-19T17:08:30.772Z,13.43
2018-12-19T17:10:56.921Z,13.43
2018-12-19T17:13:23.266Z,14.47
2018-12-19T17:15:49.390Z,13.50
2018-12-19T17:18:15.671Z,15.43
2018-12-19T17:20:42.248Z,15.83
2018-12-19T17:23:09.149Z,14.10
2018-12-19T17:25:35.424Z,13.80
2018-12-19T17:28:01.691Z,13.37
2018-12-19T17:30:28.121Z,16.03
2018-12-19T17:32:54.283Z,13.90
2018-12-19T17:35:21.067Z,14.93
2018-12-19T17:37:47.216Z,12.73
2018-12-19T17:40:13.383Z,14.00
2018-12-19T17:42:39.941Z,13.27
2018-12-19T17:45:06.214Z,12.93
2018-12-19T17:47:32.372Z,13.37
2018-12-19T17:50:00.019Z,13.73
2018-12-19T17:52:26.295Z,16.70
2018-12-19T17:54:52.476Z,16.03
2018-12-19T17:57:19.354Z,14.43
2018-12-19T17:59:45.627Z,14.37
2018-12-19T18:02:12.003Z,16.07
2018-12-19T18:04:38.311Z,14.47
2018-12-19T18:07:04.691Z,16.47
2018-12-19T18:09:31.186Z,15.73
2018-12-19T18:11:57.875Z,15.33
2018-12-19T18:14:24.075Z,17.87
2018-12-19T18:16:50.323Z,16.00
2018-12-19T18:19:23.212Z,16.47
2018-12-19T18:21:45.152Z,14.50
2018-12-19T18:24:11.449Z,13.30
2018-12-19T18:26:38.350Z,12.50
2018-12-19T18:29:04.691Z,13.83
2018-12-19T18:31:30.894Z,14.40
2018-12-19T18:33:57.338Z,17.60
2018-12-19T18:36:23.615Z,15.97
2018-12-19T18:38:49.887Z,14.97
2018-12-19T18:41:16.734Z,15.80
2018-12-19T18:43:42.914Z,15.87
2018-12-19T18:46:09.080Z,16.43
2018-12-19T18:48:35.563Z,16.77
2018-12-19T18:51:02.999Z,16.80
2018-12-19T18:53:29.262Z,17.13
2018-12-19T18:55:55.802Z,16.23
2018-12-19T18:58:21.966Z,15.90
2018-12-19T19:00:48.312Z,17.80
2018-12-19T19:03:15.176Z,18.07
2018-12-19T19:05:41.528Z,16.43
2018-12-19T19:08:07.759Z,16.53
2018-12-19T19:10:34.204Z,17.90
2018-12-19T19:13:00.378Z,19.17
2018-12-19T19:15:26.591Z,18.27
2018-12-19T19:17:53.147Z,15.93
2018-12-19T19:20:19.447Z,16.10
2018-12-19T19:22:45.730Z,17.17
2018-12-19T19:25:12.639Z,17.77
2018-12-19T19:27:38.833Z,17.70
2018-12-19T19:30:07.562Z,16.53
2018-12-19T19:32:33.914Z,17.13
2018-12-19T19:35:00.103Z,18.73
2018-12-19T19:37:26.282Z,18.53
2018-12-19T19:39:52.720Z,19.87
2018-12-19T19:42:18.946Z,17.53
2018-12-19T19:44:45.110Z,18.50
2018-12-19T19:47:11.813Z,16.93
2018-12-19T19:49:38.047Z,15.60
2018-12-19T19:52:04.447Z,19.37
2018-12-19T19:54:31.039Z,20.90
2018-12-19T19:56:57.447Z,19.27
2018-12-19T19:59:23.512Z,20.90
2018-12-19T20:01:49.943Z,17.67
2018-12-19T20:04:16.150Z,20.03
2018-12-19T20:06:42.257Z,19.87
2018-12-19T20:09:08.583Z,18.10
2018-12-19T20:11:34.750Z,18.57
2018-12-19T20:14:01.057Z,21.63
2018-12-19T20:16:27.554Z,19.60
2018-12-19T20:18:53.837Z,17.83
2018-12-19T20:21:20.012Z,18.73
2018-12-19T20:23:46.605Z,19.00
2018-12-19T20:26:12.818Z,20.10
2018-12-19T20:28:38.988Z,21.07
2018-12-19T20:31:06.708Z,17.60
2018-12-19T20:33:32.817Z,19.57
2018-12-19T20:35:59.013Z,20.00
2018-12-19T20:38:25.721Z,19.50
2018-12-19T20:40:52.005Z,19.17
2018-12-19T20:43:18.275Z,19.03
2018-12-19T20:45:44.731Z,20.33
2018-12-19T20:48:10.903Z,20.63
2018-12-19T20:50:37.188Z,18.80
2018-12-19T20:53:04.004Z,20.40
2018-12-19T20:55:30.235Z,20.37
2018-12-19T20:57:56.512Z,18.40
2018-12-19T21:00:23.293Z,22.17
2018-12-19T21:02:49.769Z,18.23
2018-12-19T21:05:16.027Z,20.70
2018-12-19T21:07:42.488Z,18.47
2018-12-19T21:10:08.791Z,18.93
2018-12-19T21:12:35.075Z,19.40
2018-12-19T21:15:03.345Z,21.20
2018-12-19T21:17:35.872Z,16.50
2018-12-19T21:20:05.107Z,20.53
2018-12-19T21:22:32.528Z,19.47
2018-12-19T21:24:58.708Z,20.13
2018-12-19T21:27:25.016Z,19.00
2018-12-19T21:29:51.266Z,17.63
2018-12-19T21:32:17.834Z,20.50
2018-12-19T21:34:44.184Z,18.00
2018-12-19T21:37:10.480Z,16.10
2018-12-19T21:39:36.644Z,17.47
2018-12-19T21:42:03.387Z,16.73
2018-12-19T21:44:29.607Z,18.13
2018-12-19T21:46:56.095Z,19.33
2018-12-19T21:49:23.175Z,14.80
2018-12-19T21:51:49.579Z,18.20
2018-12-19T21:54:15.818Z,19.67
2018-12-19T21:56:42.371Z,15.27
2018-12-19T21:59:08.425Z,16.30
2018-12-19T22:01:34.742Z,18.40
2018-12-19T22:04:01.524Z,19.23
2018-12-19T22:06:27.998Z,16.13
2018-12-19T22:08:54.276Z,16.87
2018-12-19T22:11:20.663Z,16.90
2018-12-19T22:13:46.965Z,19.30
2018-12-19T22:16:15.298Z,16.47
2018-12-19T22:18:43.764Z,15.80
2018-12-19T22:21:10.050Z,19.50
2018-12-19T22:23:36.298Z,18.13
2018-12-19T22:26:02.635Z,17.23
2018-12-19T22:28:29.019Z,17.30
2018-12-19T22:30:55.240Z,15.83
2018-12-19T22:33:21.879Z,16.27
2018-12-19T22:35:47.952Z,20.10
2018-12-19T22:38:14.365Z,16.03
2018-12-19T22:40:40.986Z,16.40
2018-12-19T22:43:07.274Z,15.43
2018-12-19T22:45:33.500Z,15.73
2018-12-19T22:48:00.222Z,15.70
2018-12-19T22:50:33.301Z,18.50
2018-12-19T22:52:59.827Z,18.80
2018-12-19T22:55:26.297Z,17.70
2018-12-19T22:57:52.535Z,18.27
2018-12-19T23:00:19.659Z,18.97
2018-12-19T23:02:52.186Z,16.40
2018-12-19T23:05:21.059Z,18.70
2018-12-19T23:07:47.352Z,17.63
2018-12-19T23:10:13.719Z,19.40
2018-12-19T23:12:40.466Z,18.60
2018-12-19T23:15:06.811Z,20.13
2018-12-19T23:17:39.016Z,18.30
2018-12-19T23:20:08.652Z,15.83
2018-12-19T23:22:34.853Z,17.30
2018-12-19T23:25:01.311Z,15.53
2018-12-19T23:27:27.886Z,17.90
2018-12-19T23:29:54.373Z,14.73
2018-12-19T23:32:23.111Z,17.47
2018-12-19T23:34:49.776Z,16.90
2018-12-19T23:37:16.101Z,17.37
2018-12-19T23:39:42.400Z,17.47
2018-12-19T23:42:09.097Z,18.10
2018-12-19T23:44:35.274Z,18.57
2018-12-19T23:47:01.461Z,17.40
2018-12-19T23:49:28.088Z,17.90
2018-12-19T23:51:54.389Z,19.43
2018-12-19T23:54:20.700Z,19.07
2018-12-19T23:56:47.185Z,17.93
2018-12-19T23:59:13.397Z,17.70
